Time;durP1;ratioP1;P1;durP2;ratioP2;P2;SDS_P1;SDS_P2;PMS_P1;PMS_P2;Temp;Humidity;BMP_temperature;BMP_pressure;BME280_temperature;BME280_humidity;BME280_pressure;Samples;Min_cycle;Max_cycle;Signal;HPM_P1;HPM_P2
2023/10/03 00:00:24;;;;;;;3.35;2.03;;;11.40;95.00;;;;;;5053396;28;20116;-84
2023/10/03 00:02:54;;;;;;;2.75;1.98;;;11.30;95.10;;;;;;5053536;28;20327;-84
2023/10/03 00:05:22;;;;;;;4.88;2.22;;;11.30;95.20;;;;;;5053049;28;20027;-84
2023/10/03 00:07:52;;;;;;;6.88;2.40;;;11.20;95.20;;;;;;5053538;28;20013;-85
2023/10/03 00:10:18;;;;;;;6.55;2.10;;;11.10;95.30;;;;;;5052888;28;20029;-84
2023/10/03 00:12:48;;;;;;;5.63;2.15;;;11.10;95.50;;;;;;5053592;28;20064;-84
2023/10/03 00:15:15;;;;;;;2.63;1.90;;;11.10;95.50;;;;;;5053410;28;20031;-83
2023/10/03 00:17:41;;;;;;;;;;;11.00;95.70;;;;;;5050240;28;20017;-82
2023/10/03 00:20:16;;;;;;;7.57;2.33;;;11.00;95.50;;;;;;5053356;28;19999;-83
2023/10/03 00:22:42;;;;;;;3.83;2.10;;;11.00;95.80;;;;;;5053792;28;20047;-83
2023/10/03 00:25:12;;;;;;;7.18;2.10;;;11.00;95.80;;;;;;5054491;28;20029;-82
2023/10/03 00:27:38;;;;;;;4.25;2.35;;;11.10;96.00;;;;;;5055105;28;20354;-83
2023/10/03 00:30:06;;;;;;;4.22;2.17;;;11.20;95.90;;;;;;5063536;28;20028;-81
2023/10/03 00:32:32;;;;;;;4.25;1.90;;;11.20;95.80;;;;;;5054203;28;20494;-83
2023/10/03 00:34:58;;;;;;;4.95;2.15;;;11.20;95.80;;;;;;5071014;28;20060;-84
2023/10/03 00:37:24;;;;;;;5.53;2.17;;;11.20;95.80;;;;;;5052789;28;20014;-83
2023/10/03 00:39:51;;;;;;;5.05;2.78;;;11.20;95.90;;;;;;5049506;28;20124;-83
2023/10/03 00:42:17;;;;;;;3.35;1.80;;;11.20;96.10;;;;;;5053289;28;20021;-83
2023/10/03 00:44:44;;;;;;;6.68;2.28;;;11.00;96.20;;;;;;5054430;28;20029;-83
2023/10/03 00:47:10;;;;;;;7.05;2.78;;;11.00;96.30;;;;;;5058277;28;20025;-84
2023/10/03 00:49:36;;;;;;;3.75;2.42;;;10.90;96.40;;;;;;5057252;28;20036;-84
2023/10/03 00:52:05;;;;;;;4.38;2.17;;;10.80;96.50;;;;;;5055541;28;20013;-84
2023/10/03 00:54:32;;;;;;;5.25;3.00;;;10.80;96.70;;;;;;5052281;28;20066;-85
2023/10/03 00:56:58;;;;;;;5.10;2.00;;;10.70;96.90;;;;;;5055677;28;20020;-83
2023/10/03 00:59:24;;;;;;;5.72;1.98;;;10.70;97.00;;;;;;5053312;28;20037;-85
2023/10/03 01:01:54;;;;;;;3.63;2.30;;;10.70;97.20;;;;;;5052814;28;20116;-84
2023/10/03 01:04:20;;;;;;;3.38;1.88;;;10.60;97.20;;;;;;5039159;28;20324;-83
2023/10/03 01:06:49;;;;;;;6.35;2.38;;;10.60;97.40;;;;;;5051929;28;20470;-83
2023/10/03 01:09:24;;;;;;;6.28;2.58;;;10.60;97.50;;;;;;5034762;28;20776;-82
2023/10/03 01:11:52;;;;;;;5.60;2.53;;;10.50;97.60;;;;;;5052803;28;20033;-84
2023/10/03 01:14:19;;;;;;;2.95;1.77;;;10.50;97.70;;;;;;5036375;28;20122;-84
2023/10/03 01:16:45;;;;;;;6.05;2.13;;;10.50;97.80;;;;;;5071591;28;20024;-84
2023/10/03 01:19:15;;;;;;;5.15;2.42;;;10.40;97.90;;;;;;5074614;28;20029;-84
2023/10/03 01:21:41;;;;;;;5.35;2.80;;;10.40;98.00;;;;;;5056087;28;20025;-84
2023/10/03 01:24:09;;;;;;;4.55;1.98;;;10.40;98.10;;;;;;5052520;28;20083;-84
2023/10/03 01:26:35;;;;;;;5.28;1.95;;;10.30;98.20;;;;;;5052656;28;20025;-85
2023/10/03 01:29:02;;;;;;;6.55;2.40;;;10.30;98.20;;;;;;5052384;28;20036;-85
2023/10/03 01:31:30;;;;;;;6.30;2.50;;;10.20;98.40;;;;;;5052407;28;20029;-86
2023/10/03 01:33:56;;;;;;;5.72;2.10;;;10.20;98.50;;;;;;5052601;28;20029;-85
2023/10/03 01:36:22;;;;;;;7.03;2.42;;;10.20;98.70;;;;;;5045170;28;20028;-85
2023/10/03 01:38:48;;;;;;;3.08;2.00;;;10.10;98.70;;;;;;5040120;28;20017;-83
2023/10/03 01:41:14;;;;;;;4.65;2.17;;;10.10;98.80;;;;;;5052435;28;20450;-83
2023/10/03 01:43:43;;;;;;;6.65;2.60;;;10.10;98.90;;;;;;5052212;28;20022;-84
2023/10/03 01:46:10;;;;;;;6.57;2.50;;;10.10;99.00;;;;;;5035364;28;20032;-83
2023/10/03 01:48:36;;;;;;;3.67;1.88;;;10.00;99.10;;;;;;5053333;28;20083;-84
2023/10/03 01:51:02;;;;;;;4.43;1.83;;;10.00;99.20;;;;;;5052443;28;20540;-84
2023/10/03 01:53:29;;;;;;;6.10;2.40;;;10.10;99.30;;;;;;5031156;28;20025;-84
2023/10/03 01:55:56;;;;;;;4.13;2.22;;;10.10;99.40;;;;;;5052051;28;20021;-84
2023/10/03 01:58:24;;;;;;;5.70;2.23;;;10.20;99.40;;;;;;5051940;28;20390;-84
2023/10/03 02:00:50;;;;;;;;;;;10.20;99.40;;;;;;5034627;28;20026;-84
2023/10/03 02:03:18;;;;;;;3.78;2.13;;;10.30;99.30;;;;;;5033485;28;19996;-84
2023/10/03 02:05:44;;;;;;;3.63;2.40;;;10.40;99.30;;;;;;5038034;28;20104;-85
2023/10/03 02:08:17;;;;;;;3.95;2.53;;;10.50;99.10;;;;;;5031151;28;20029;-85
2023/10/03 02:10:47;;;;;;;6.43;2.40;;;10.60;99.00;;;;;;5048720;28;20489;-83
2023/10/03 02:13:21;;;;;;;6.65;3.35;;;10.70;98.80;;;;;;5056409;28;20037;-86
2023/10/03 02:15:49;;;;;;;5.32;2.53;;;10.80;98.50;;;;;;5055315;28;20033;-84
2023/10/03 02:18:17;;;;;;;4.72;2.40;;;10.90;98.40;;;;;;5042088;28;20037;-85
2023/10/03 02:20:47;;;;;;;5.85;2.85;;;10.90;98.20;;;;;;5056704;28;20028;-84
2023/10/03 02:23:20;;;;;;;4.63;2.75;;;10.90;98.10;;;;;;5056091;28;20434;-84
2023/10/03 02:25:50;;;;;;;4.82;2.58;;;11.00;97.90;;;;;;5037680;28;20144;-84
2023/10/03 02:28:17;;;;;;;8.13;3.17;;;11.00;97.80;;;;;;5056661;28;20021;-83
2023/10/03 02:30:50;;;;;;;4.07;2.75;;;11.00;97.70;;;;;;5055910;28;20024;-86
2023/10/03 02:33:17;;;;;;;5.80;2.72;;;11.00;97.60;;;;;;5055831;28;20055;-86
2023/10/03 02:35:47;;;;;;;6.88;3.33;;;11.00;97.50;;;;;;5056102;28;20129;-85
2023/10/03 02:38:25;;;;;;;5.72;3.00;;;11.00;97.40;;;;;;5056642;28;20032;-86
2023/10/03 02:40:58;;;;;;;6.20;2.70;;;11.00;97.40;;;;;;5040201;28;20041;-86
2023/10/03 02:43:26;;;;;;;9.02;2.60;;;11.00;97.30;;;;;;5035081;28;20037;-85
2023/10/03 02:45:51;;;;;;;4.53;2.70;;;11.00;97.20;;;;;;5054801;28;20017;-86
2023/10/03 02:48:20;;;;;;;6.05;2.45;;;11.00;97.30;;;;;;5056752;28;20092;-86
2023/10/03 02:50:47;;;;;;;3.08;2.17;;;11.00;97.10;;;;;;5061074;28;20062;-86
2023/10/03 02:53:20;;;;;;;4.18;2.70;;;11.00;97.00;;;;;;5047863;28;20036;-84
2023/10/03 02:55:51;;;;;;;6.68;2.78;;;10.90;96.80;;;;;;5050199;28;20112;-87
2023/10/03 02:58:19;;;;;;;5.40;2.88;;;10.80;96.90;;;;;;5047606;28;20107;-86
2023/10/03 03:00:49;;;;;;;3.70;2.20;;;10.80;97.00;;;;;;5055212;28;20048;-86
2023/10/03 03:03:15;;;;;;;6.40;2.45;;;10.70;97.10;;;;;;5055817;28;20040;-85
2023/10/03 03:05:42;;;;;;;3.60;2.17;;;10.70;97.10;;;;;;5064676;28;20056;-85
2023/10/03 03:10:41;;;;;;;5.68;3.38;;;10.80;96.90;;;;;;5061456;28;20044;-86
2023/10/03 03:13:13;;;;;;;6.15;2.80;;;10.80;97.00;;;;;;5054929;28;20496;-86
2023/10/03 03:18:42;;;;;;;3.58;2.65;;;10.80;96.90;;;;;;5030622;28;20075;-86
2023/10/03 03:21:13;;;;;;;7.05;2.97;;;10.70;96.80;;;;;;5054990;28;20036;-87
2023/10/03 03:23:42;;;;;;;4.78;2.75;;;10.70;96.90;;;;;;5054620;28;20020;-86
2023/10/03 03:26:20;;;;;;;4.10;2.10;;;10.70;96.90;;;;;;5058393;28;20104;-85
2023/10/03 03:28:46;;;;;;;;;;;10.60;96.70;;;;;;5058663;28;20444;-86
2023/10/03 03:31:32;;;;;;;4.78;2.13;;;10.60;96.60;;;;;;5057261;28;19952;-87
2023/10/03 03:34:00;;;;;;;2.95;1.70;;;10.50;96.80;;;;;;5056641;28;20029;-86
2023/10/03 03:36:34;;;;;;;4.45;1.75;;;10.50;97.10;;;;;;5054739;28;20056;-86
2023/10/03 03:39:05;;;;;;;2.58;2.10;;;10.60;96.70;;;;;;5055490;28;20096;-88
2023/10/03 03:41:32;;;;;;;2.90;1.80;;;10.60;96.60;;;;;;5054580;28;20032;-84
2023/10/03 03:43:59;;;;;;;2.45;1.45;;;10.50;96.60;;;;;;5024045;28;20474;-84
2023/10/03 03:46:28;;;;;;;4.57;2.30;;;10.50;96.60;;;;;;5042269;28;20037;-86
2023/10/03 03:48:54;;;;;;;3.70;2.03;;;10.60;96.60;;;;;;5053065;28;20022;-86
2023/10/03 03:51:20;;;;;;;4.70;1.95;;;10.50;96.50;;;;;;5054483;28;20024;-85
2023/10/03 03:53:46;;;;;;;3.70;1.80;;;10.60;96.40;;;;;;5054382;28;20478;-86
2023/10/03 03:56:16;;;;;;;3.45;1.90;;;10.50;96.30;;;;;;5054503;28;20025;-87
2023/10/03 03:58:45;;;;;;;4.25;1.88;;;10.50;96.40;;;;;;5054866;28;20021;-86
2023/10/03 04:01:18;;;;;;;3.35;1.95;;;10.40;96.60;;;;;;5060533;28;20152;-85
2023/10/03 04:03:45;;;;;;;4.97;1.92;;;10.40;96.80;;;;;;5056251;28;20021;-87
2023/10/03 04:06:11;;;;;;;8.88;2.53;;;10.30;96.90;;;;;;5057414;28;20051;-84
2023/10/03 04:08:38;;;;;;;6.88;2.78;;;10.30;97.00;;;;;;5047544;28;20202;-86
2023/10/03 04:11:10;;;;;;;4.00;2.23;;;10.20;97.10;;;;;;5050297;28;20076;-88
2023/10/03 04:13:49;;;;;;;6.65;2.42;;;10.30;97.20;;;;;;5054859;28;20642;-87
2023/10/03 04:16:16;;;;;;;6.32;2.63;;;10.20;97.30;;;;;;5036612;28;20083;-86
2023/10/03 04:18:44;;;;;;;5.47;2.88;;;10.10;97.40;;;;;;5036388;28;20036;-88
2023/10/03 04:21:12;;;;;;;3.47;2.15;;;10.10;97.50;;;;;;5054165;28;20119;-86
2023/10/03 04:23:39;;;;;;;4.95;2.65;;;10.10;97.60;;;;;;5054845;28;20021;-88
2023/10/03 04:26:07;;;;;;;7.13;2.53;;;10.10;97.70;;;;;;5072017;28;20024;-87
2023/10/03 04:28:33;;;;;;;6.50;2.25;;;10.10;97.70;;;;;;5070435;28;20025;-86
2023/10/03 04:30:59;;;;;;;5.13;2.65;;;10.10;97.80;;;;;;5047413;28;20375;-87
2023/10/03 04:33:25;;;;;;;6.15;3.70;;;10.10;97.90;;;;;;5055435;28;20014;-86
2023/10/03 04:35:51;;;;;;;7.53;2.75;;;10.10;97.90;;;;;;5036135;28;20097;-87
2023/10/03 04:38:17;;;;;;;5.97;3.10;;;10.10;97.90;;;;;;5038383;28;20135;-87
2023/10/03 04:40:45;;;;;;;5.20;3.38;;;10.10;97.90;;;;;;5054365;28;20080;-88
2023/10/03 04:43:11;;;;;;;8.32;3.70;;;10.10;98.00;;;;;;5054430;28;20056;-86
2023/10/03 04:45:40;;;;;;;6.05;3.35;;;10.10;98.00;;;;;;5053237;28;20449;-83
2023/10/03 04:48:07;;;;;;;5.22;3.00;;;10.10;98.10;;;;;;5047928;28;20029;-85
2023/10/03 04:50:35;;;;;;;5.45;3.30;;;10.10;98.20;;;;;;5037078;28;20028;-86
2023/10/03 04:53:02;;;;;;;6.53;3.22;;;10.20;98.20;;;;;;5056833;28;20108;-86
2023/10/03 04:55:28;;;;;;;5.82;2.20;;;10.20;98.00;;;;;;5059289;28;20017;-87
2023/10/03 04:57:55;;;;;;;6.38;2.95;;;10.20;97.80;;;;;;5078224;28;20020;-86
2023/10/03 05:00:22;;;;;;;6.70;3.78;;;10.20;97.80;;;;;;5064694;28;20037;-86
2023/10/03 05:02:49;;;;;;;;;;;10.20;97.80;;;;;;5036032;28;20025;-85
2023/10/03 05:05:22;;;;;;;8.32;4.43;;;10.20;97.60;;;;;;5055058;28;19915;-85
2023/10/03 05:07:49;;;;;;;11.60;3.85;;;10.20;97.70;;;;;;5054343;28;20028;-85
2023/10/03 05:10:17;;;;;;;6.43;4.95;;;10.30;97.70;;;;;;5048748;28;20025;-85
2023/10/03 05:12:46;;;;;;;8.07;4.82;;;10.30;97.50;;;;;;5047864;28;20030;-86
2023/10/03 05:15:16;;;;;;;9.75;5.93;;;10.40;97.20;;;;;;5057948;28;20017;-85
2023/10/03 05:17:44;;;;;;;8.77;5.00;;;10.50;97.10;;;;;;5062874;28;20050;-84
2023/10/03 05:20:11;;;;;;;10.00;4.47;;;10.60;96.90;;;;;;5068473;28;20040;-87
2023/10/03 05:22:37;;;;;;;9.63;5.28;;;10.70;96.50;;;;;;5042984;28;20025;-86
2023/10/03 05:25:07;;;;;;;9.20;5.25;;;10.90;96.50;;;;;;5062549;28;20046;-87
2023/10/03 05:27:33;;;;;;;11.73;6.55;;;11.00;96.20;;;;;;5052387;28;20454;-88
2023/10/03 05:30:02;;;;;;;7.57;4.75;;;11.20;96.00;;;;;;5053526;28;20013;-87
2023/10/03 05:32:28;;;;;;;9.00;4.00;;;11.30;95.40;;;;;;5041847;28;20486;-85
2023/10/03 05:34:54;;;;;;;9.07;3.58;;;11.20;94.90;;;;;;5042528;28;20061;-88
2023/10/03 05:37:20;;;;;;;9.88;4.43;;;11.20;94.80;;;;;;5049447;28;20018;-87
2023/10/03 05:39:47;;;;;;;8.90;3.30;;;11.20;94.60;;;;;;5048394;28;20052;-88
2023/10/03 05:42:14;;;;;;;7.80;3.93;;;11.10;94.60;;;;;;5036171;28;20026;-86
2023/10/03 05:44:46;;;;;;;8.35;3.95;;;11.00;94.50;;;;;;5052623;28;20040;-87
2023/10/03 05:47:12;;;;;;;8.65;4.10;;;11.00;94.50;;;;;;5034784;28;20040;-86
2023/10/03 05:49:39;;;;;;;10.63;4.18;;;11.00;94.40;;;;;;5053461;28;20013;-85
2023/10/03 05:52:08;;;;;;;12.37;3.87;;;11.00;94.50;;;;;;5037278;28;20029;-86
2023/10/03 05:54:34;;;;;;;9.50;3.95;;;11.00;94.40;;;;;;5065253;28;20100;-85
2023/10/03 05:57:00;;;;;;;6.47;3.10;;;11.10;94.20;;;;;;5061424;28;20390;-85
2023/10/03 05:59:27;;;;;;;9.18;3.72;;;11.10;93.60;;;;;;5054719;28;20037;-88
2023/10/03 06:01:53;;;;;;;6.50;3.78;;;11.10;93.00;;;;;;5054977;28;20069;-88
2023/10/03 06:04:19;;;;;;;7.70;3.92;;;11.10;93.00;;;;;;5051416;28;20033;-86
2023/10/03 06:06:44;;;;;;;6.38;3.13;;;11.20;92.80;;;;;;5035044;28;20122;-86
2023/10/03 06:09:10;;;;;;;9.15;3.30;;;11.20;92.70;;;;;;5049618;28;20196;-90
2023/10/03 06:11:37;;;;;;;7.72;3.55;;;11.30;92.60;;;;;;5064441;28;20028;-86
2023/10/03 06:14:05;;;;;;;7.45;3.90;;;11.30;92.40;;;;;;5058284;28;20051;-84
2023/10/03 06:16:32;;;;;;;8.23;3.42;;;11.40;92.10;;;;;;5055653;28;20107;-88
2023/10/03 06:18:58;;;;;;;8.60;3.53;;;11.40;91.80;;;;;;5036058;28;20508;-90
2023/10/03 06:21:24;;;;;;;11.20;3.30;;;11.40;91.30;;;;;;5055772;28;20036;-87
2023/10/03 06:23:51;;;;;;;7.15;4.20;;;11.50;91.20;;;;;;5042819;28;20462;-88
2023/10/03 06:26:20;;;;;;;8.52;2.92;;;11.40;91.00;;;;;;5051508;28;20397;-89
2023/10/03 06:28:48;;;;;;;9.40;3.67;;;11.40;90.80;;;;;;5042906;28;20029;-88
2023/10/03 06:31:17;;;;;;;6.43;2.92;;;11.50;90.60;;;;;;5051276;28;20022;-89
2023/10/03 06:33:43;;;;;;;6.32;3.35;;;11.60;90.50;;;;;;5065602;28;20021;-88
2023/10/03 06:36:09;;;;;;;5.25;2.30;;;11.60;90.50;;;;;;5058566;28;20041;-88
2023/10/03 06:38:36;;;;;;;9.68;3.65;;;11.60;90.00;;;;;;5038547;28;20028;-89
2023/10/03 06:41:07;;;;;;;6.95;3.60;;;11.70;89.80;;;;;;5035490;28;20029;-92
2023/10/03 06:43:33;;;;;;;7.22;3.60;;;11.70;89.50;;;;;;5013739;28;20486;-87
2023/10/03 06:45:59;;;;;;;6.50;3.35;;;11.80;89.30;;;;;;5045842;28;20033;-89
2023/10/03 06:48:28;;;;;;;6.70;3.10;;;11.90;89.20;;;;;;5066142;28;20069;-91
2023/10/03 06:50:54;;;;;;;9.30;3.15;;;12.00;88.70;;;;;;5034301;28;20045;-88
2023/10/03 06:53:23;;;;;;;11.40;3.67;;;12.00;88.40;;;;;;5052878;28;20478;-90
2023/10/03 06:55:49;;;;;;;6.82;3.05;;;12.10;88.40;;;;;;5026172;28;20100;-89
2023/10/03 06:58:15;;;;;;;8.05;2.85;;;12.20;87.90;;;;;;5056536;28;20339;-90
2023/10/03 07:00:41;;;;;;;7.32;2.70;;;12.30;86.80;;;;;;5059019;28;20043;-90
2023/10/03 07:03:08;;;;;;;6.22;2.70;;;12.40;86.40;;;;;;5059301;28;20028;-92
2023/10/03 07:05:34;;;;;;;6.53;2.97;;;12.50;85.90;;;;;;5040780;28;20032;-91
2023/10/03 07:08:03;;;;;;;5.72;2.88;;;12.60;85.70;;;;;;5061485;28;20028;-89
2023/10/03 07:10:29;;;;;;;6.35;2.70;;;12.70;85.00;;;;;;5059414;28;20024;-90
2023/10/03 07:12:57;;;;;;;7.85;3.55;;;12.80;84.50;;;;;;5041995;28;20124;-90
2023/10/03 07:15:23;;;;;;;17.00;9.82;;;12.90;84.30;;;;;;5059340;28;20021;-92
2023/10/03 07:17:49;;;;;;;8.73;3.42;;;12.90;84.00;;;;;;5058784;28;20048;-91
2023/10/03 07:20:17;;;;;;;7.57;3.47;;;13.00;83.80;;;;;;5044489;28;20043;-89
2023/10/03 07:22:42;;;;;;;7.10;3.03;;;13.30;84.30;;;;;;5040687;28;20033;-89
2023/10/03 07:25:09;;;;;;;7.15;3.38;;;14.50;82.90;;;;;;5054366;28;20267;-89
2023/10/03 07:27:36;;;;;;;6.22;3.10;;;15.90;76.70;;;;;;5036221;28;20021;-90
2023/10/03 07:30:02;;;;;;;8.53;2.90;;;16.70;72.40;;;;;;5067761;28;20454;-89
2023/10/03 07:32:32;;;;;;;6.87;3.23;;;17.50;70.70;;;;;;5060355;28;20333;-90
2023/10/03 07:34:59;;;;;;;5.65;3.58;;;18.20;67.30;;;;;;5061279;28;20068;-90
2023/10/03 07:37:25;;;;;;;7.55;3.40;;;18.50;65.60;;;;;;5056037;28;20059;-92
2023/10/03 07:39:52;;;;;;;6.35;4.07;;;18.80;65.10;;;;;;5047533;28;20041;-91
2023/10/03 07:42:21;;;;;;;10.43;4.80;;;19.30;64.10;;;;;;5058022;28;20118;-89
2023/10/03 07:44:52;;;;;;;5.70;3.80;;;19.80;62.70;;;;;;5063457;28;20082;-91
2023/10/03 07:47:18;;;;;;;7.40;3.78;;;20.40;61.70;;;;;;5042173;28;20116;-87
2023/10/03 07:49:46;;;;;;;11.35;5.47;;;21.40;59.50;;;;;;5052302;28;20391;-92
2023/10/03 07:52:12;;;;;;;6.03;3.88;;;21.70;57.20;;;;;;5042788;28;20025;-92
2023/10/03 07:54:38;;;;;;;11.03;5.50;;;21.70;55.80;;;;;;5067981;28;20094;-90
2023/10/03 07:57:08;;;;;;;7.43;3.72;;;21.70;56.10;;;;;;5040784;28;20028;-92
2023/10/03 07:59:34;;;;;;;10.23;3.45;;;21.90;55.30;;;;;;5036586;28;20080;-93
2023/10/03 08:02:10;;;;;;;15.05;4.55;;;22.30;54.90;;;;;;5051008;28;20032;-90
2023/10/03 08:04:37;;;;;;;8.05;3.78;;;22.90;53.60;;;;;;5032899;28;20035;-91
2023/10/03 08:07:07;;;;;;;11.45;3.83;;;23.90;52.50;;;;;;5054056;28;20032;-91
2023/10/03 08:09:33;;;;;;;10.73;5.57;;;25.00;50.50;;;;;;5041011;28;20102;-89
2023/10/03 08:11:59;;;;;;;6.82;4.60;;;25.20;48.50;;;;;;5057438;28;20462;-93
2023/10/03 08:14:25;;;;;;;6.32;3.47;;;25.60;47.80;;;;;;5038052;28;20120;-90
2023/10/03 08:16:56;;;;;;;6.82;3.83;;;25.40;46.70;;;;;;5039534;28;20116;-89
2023/10/03 08:19:22;;;;;;;9.45;4.18;;;25.30;46.90;;;;;;5056620;28;20031;-92
2023/10/03 08:21:55;;;;;;;9.48;4.43;;;25.20;46.80;;;;;;5062885;28;20041;-90
2023/10/03 08:24:25;;;;;;;11.55;3.10;;;;;;;;;;5062918;28;20023;-90
2023/10/03 08:26:58;;;;;;;6.40;3.70;;;26.10;54.80;;;;;;5040140;28;20014;-90
2023/10/03 08:29:25;;;;;;;7.75;3.95;;;26.20;45.00;;;;;;5024876;28;20056;-90
2023/10/03 08:31:58;;;;;;;6.28;3.35;;;26.20;44.90;;;;;;5044531;28;20394;-91
2023/10/03 08:34:30;;;;;;;8.80;3.92;;;26.70;45.00;;;;;;5055384;28;20089;-90
2023/10/03 08:37:01;;;;;;;6.18;3.45;;;27.00;44.00;;;;;;5057898;28;20028;-90
2023/10/03 08:39:29;;;;;;;9.50;4.82;;;27.00;43.30;;;;;;5061778;28;20105;-93
2023/10/03 08:42:13;;;;;;;11.45;6.07;;;26.60;43.20;;;;;;5044724;28;20158;-91
2023/10/03 08:44:52;;;;;;;6.55;3.35;;;26.40;43.80;;;;;;5049745;28;20021;-91
2023/10/03 08:47:28;;;;;;;8.45;3.33;;;26.60;43.40;;;;;;5042412;28;20025;-90
2023/10/03 08:50:29;;;;;;;9.98;3.70;;;27.00;43.10;;;;;;5060644;28;20429;-92
2023/10/03 08:52:52;;;;;;;7.82;3.35;;;27.10;43.20;;;;;;5061898;28;20112;-90
2023/10/03 08:55:19;;;;;;;5.60;2.80;;;27.60;42.60;;;;;;5066491;28;20070;-92
2023/10/03 08:57:47;;;;;;;6.82;3.72;;;28.10;41.90;;;;;;5053438;28;20025;-92
2023/10/03 09:00:14;;;;;;;9.25;5.45;;;28.00;41.20;;;;;;5040806;28;20041;-92
2023/10/03 09:02:49;;;;;;;6.13;3.05;;;27.90;41.60;;;;;;5051270;28;20025;-93
2023/10/03 09:05:19;;;;;;;7.38;3.58;;;27.50;41.40;;;;;;5047219;28;20032;-91
2023/10/03 09:07:49;;;;;;;7.93;3.63;;;27.20;41.40;;;;;;5073196;28;20025;-92
2023/10/03 09:10:22;;;;;;;7.25;2.88;;;27.00;42.30;;;;;;5034831;28;20030;-94
2023/10/03 09:13:04;;;;;;;6.68;3.92;;;26.80;42.20;;;;;;5048264;28;20030;-94
2023/10/03 09:15:38;;;;;;;4.68;3.22;;;26.00;42.40;;;;;;5028693;28;20095;-90
2023/10/03 09:18:10;;;;;;;7.70;3.17;;;24.80;44.70;;;;;;5037736;28;20022;-89
2023/10/03 09:20:36;;;;;;;4.22;3.10;;;24.30;45.00;;;;;;5047545;28;20108;-90
2023/10/03 09:23:07;;;;;;;8.13;3.15;;;24.10;46.40;;;;;;5058301;28;20021;-92
2023/10/03 09:25:41;;;;;;;6.32;3.88;;;24.30;45.80;;;;;;5068875;28;20470;-93
2023/10/03 09:28:09;;;;;;;8.20;3.15;;;24.40;45.80;;;;;;5028810;28;20028;-90
2023/10/03 09:30:39;;;;;;;5.57;3.15;;;24.80;46.10;;;;;;5043643;28;20051;-91
2023/10/03 09:33:09;;;;;;;11.82;3.30;;;25.90;45.20;;;;;;5066397;28;20044;-91
2023/10/03 09:35:39;;;;;;;7.57;3.45;;;26.70;44.00;;;;;;5086923;28;20075;-91
2023/10/03 09:38:08;;;;;;;7.15;3.20;;;27.40;42.90;;;;;;5057644;28;20052;-92
2023/10/03 09:40:49;;;;;;;4.68;2.80;;;28.10;42.50;;;;;;5047240;28;20040;-91
2023/10/03 09:43:27;;;;;;;6.38;3.42;;;29.00;41.90;;;;;;5069562;28;20044;-92
2023/10/03 09:45:56;;;;;;;6.13;3.00;;;28.80;40.50;;;;;;5058287;28;20013;-91
2023/10/03 09:48:25;;;;;;;5.00;3.45;;;28.50;40.90;;;;;;5037759;28;20029;-92
2023/10/03 09:51:05;;;;;;;9.43;3.45;;;28.20;40.70;;;;;;5062378;28;20095;-90
2023/10/03 09:53:32;;;;;;;5.60;3.30;;;27.00;41.70;;;;;;5042632;28;20044;-91
2023/10/03 09:56:00;;;;;;;13.27;10.30;;;26.10;42.70;;;;;;5040624;28;20095;-92
2023/10/03 09:58:33;;;;;;;8.48;4.07;;;26.00;43.70;;;;;;5043043;28;20517;-92
2023/10/03 10:00:59;;;;;;;5.82;3.58;;;26.60;43.00;;;;;;5072904;28;20021;-92
2023/10/03 10:03:30;;;;;;;6.82;3.28;;;27.40;42.40;;;;;;5051846;28;20087;-91
2023/10/03 10:06:12;;;;;;;7.00;3.55;;;28.00;41.00;;;;;;5069014;28;20025;-92
2023/10/03 10:08:58;;;;;;;9.18;4.55;;;27.00;41.10;;;;;;5073731;28;20025;-92
2023/10/03 10:11:30;;;;;;;7.93;4.50;;;25.50;43.00;;;;;;5065522;28;20045;-91
2023/10/03 10:14:16;;;;;;;6.03;3.95;;;24.10;45.00;;;;;;5058137;28;20134;-92
2023/10/03 10:17:03;;;;;;;9.68;3.65;;;23.00;46.90;;;;;;5051841;28;20048;-90
2023/10/03 10:20:07;;;;;;;12.50;4.38;;;21.70;47.80;;;;;;5065198;28;20053;-91
2023/10/03 10:23:13;;;;;;;6.57;4.30;;;21.30;50.00;;;;;;5037293;28;20107;-91
2023/10/03 10:25:43;;;;;;;8.20;4.13;;;20.60;51.30;;;;;;5063714;28;20017;-90
2023/10/03 10:28:20;;;;;;;7.90;4.47;;;20.20;52.50;;;;;;5061830;28;20478;-91
2023/10/03 10:31:15;;;;;;;7.20;3.88;;;19.60;54.00;;;;;;5041390;28;20551;-91
2023/10/03 10:33:42;;;;;;;8.05;4.43;;;19.40;54.50;;;;;;5035570;28;20387;-92
2023/10/03 10:36:10;;;;;;;6.88;3.33;;;19.30;54.90;;;;;;5043161;28;20025;-91
2023/10/03 10:38:36;;;;;;;7.25;4.43;;;19.00;55.00;;;;;;5058267;28;20818;-90
2023/10/03 10:41:11;;;;;;;9.00;4.90;;;18.50;56.30;;;;;;5060673;28;20044;-91
2023/10/03 10:43:56;;;;;;;7.45;4.38;;;18.20;57.20;;;;;;5060326;28;20128;-89
2023/10/03 10:46:32;;;;;;;9.43;4.28;;;18.20;57.60;;;;;;5058170;28;20017;-90
2023/10/03 10:48:58;;;;;;;7.90;4.40;;;18.10;57.50;;;;;;5057654;28;20075;-91
2023/10/03 10:51:25;;;;;;;8.32;4.32;;;18.20;58.10;;;;;;5049936;28;20036;-91
2023/10/03 10:53:51;;;;;;;6.82;3.90;;;18.20;58.20;;;;;;5052858;28;20389;-91
2023/10/03 10:56:35;;;;;;;8.07;5.77;;;18.40;57.90;;;;;;5049544;28;20052;-90
2023/10/03 10:59:26;;;;;;;8.85;5.13;;;18.20;58.10;;;;;;4984267;28;20034;-90
2023/10/03 11:02:06;;;;;;;9.75;4.60;;;18.20;58.70;;;;;;4992712;28;20019;-91
2023/10/03 11:04:34;;;;;;;9.98;5.50;;;18.00;58.30;;;;;;4982275;28;20023;-90
2023/10/03 11:07:00;;;;;;;7.70;4.20;;;17.80;59.00;;;;;;4974239;28;20101;-90
2023/10/03 11:09:26;;;;;;;7.82;4.60;;;17.80;59.10;;;;;;4992866;28;20034;-91
2023/10/03 11:11:52;;;;;;;9.27;3.90;;;17.80;59.40;;;;;;4997698;28;20050;-90
2023/10/03 11:14:31;;;;;;;10.48;3.85;;;17.80;59.70;;;;;;5000175;28;20109;-92
2023/10/03 11:16:58;;;;;;;10.82;4.53;;;18.00;60.00;;;;;;4981477;28;20030;-89
2023/10/03 11:19:25;;;;;;;9.88;3.67;;;18.20;59.50;;;;;;4996456;28;20026;-88
2023/10/03 11:21:51;;;;;;;10.70;4.70;;;18.20;59.00;;;;;;4996619;28;20034;-89
2023/10/03 11:24:25;;;;;;;9.27;5.40;;;17.90;59.20;;;;;;4997886;28;20403;-91
2023/10/03 11:26:57;;;;;;;5.75;3.38;;;17.80;59.60;;;;;;4996587;28;20057;-88
2023/10/03 11:29:37;;;;;;;8.32;4.50;;;17.70;59.30;;;;;;4996088;28;20113;-91
2023/10/03 11:32:05;;;;;;;7.05;3.70;;;17.50;60.00;;;;;;4983239;28;20035;-91
2023/10/03 11:34:34;;;;;;;9.35;4.97;;;17.50;60.20;;;;;;4985044;28;20051;-89
2023/10/03 11:37:03;;;;;;;9.00;4.38;;;17.70;60.20;;;;;;4973933;28;20026;-89
2023/10/03 11:39:45;;;;;;;8.65;5.25;;;17.80;59.90;;;;;;4989074;28;20523;-90
2023/10/03 11:42:24;;;;;;;8.27;4.00;;;17.90;59.80;;;;;;4985293;28;20037;-91
2023/10/03 11:45:13;;;;;;;9.80;4.22;;;17.70;59.60;;;;;;4997882;28;20026;-92
2023/10/03 11:47:39;;;;;;;7.32;4.03;;;17.70;59.50;;;;;;4972747;28;20041;-90
2023/10/03 11:50:06;;;;;;;12.57;4.80;;;17.80;59.60;;;;;;5053830;28;20048;-89
2023/10/03 11:52:32;;;;;;;5.43;3.42;;;17.80;59.60;;;;;;5060765;28;20075;-91
2023/10/03 11:54:58;;;;;;;8.38;3.88;;;17.60;59.30;;;;;;5059230;28;20029;-91
2023/10/03 11:57:24;;;;;;;9.73;3.63;;;17.50;60.00;;;;;;5059475;28;20027;-89
2023/10/03 11:59:50;;;;;;;7.57;3.70;;;17.40;60.50;;;;;;5045801;28;20061;-89
2023/10/03 12:02:17;;;;;;;9.18;3.67;;;17.30;60.60;;;;;;5055984;28;20037;-89
2023/10/03 12:04:43;;;;;;;7.30;4.27;;;17.30;60.90;;;;;;5046423;28;20021;-89
2023/10/03 12:07:11;;;;;;;8.55;3.90;;;17.30;61.30;;;;;;5059730;28;20067;-92
2023/10/03 12:09:36;;;;;;;11.23;5.55;;;17.40;61.20;;;;;;5042750;28;20017;-89
2023/10/03 12:12:02;;;;;;;10.40;3.92;;;17.50;61.10;;;;;;5048739;28;20104;-91
2023/10/03 12:14:29;;;;;;;7.53;4.70;;;17.50;60.30;;;;;;5053682;28;20385;-89
2023/10/03 12:16:59;;;;;;;8.88;4.80;;;17.40;60.30;;;;;;5064689;28;20029;-91
2023/10/03 12:19:25;;;;;;;6.93;3.67;;;17.30;60.90;;;;;;5057366;28;20028;-90
2023/10/03 12:21:51;;;;;;;9.75;4.80;;;17.20;60.90;;;;;;5059754;28;20045;-91
2023/10/03 12:24:17;;;;;;;7.05;4.55;;;17.00;61.90;;;;;;5057334;28;20028;-90
2023/10/03 12:26:44;;;;;;;11.45;6.47;;;16.90;62.20;;;;;;5051065;28;20017;-90
2023/10/03 12:29:10;;;;;;;12.85;4.68;;;17.00;62.60;;;;;;5057803;28;20069;-89
2023/10/03 12:31:36;;;;;;;8.10;4.68;;;17.10;62.20;;;;;;5038483;28;20566;-89
2023/10/03 12:34:02;;;;;;;12.65;4.45;;;17.30;61.90;;;;;;5046148;28;20077;-91
2023/10/03 12:36:34;;;;;;;8.85;4.50;;;17.30;61.40;;;;;;5032514;28;20051;-91
2023/10/03 12:39:10;;;;;;;9.35;4.80;;;17.30;61.40;;;;;;5019310;28;20024;-90
2023/10/03 12:41:37;;;;;;;14.85;5.88;;;17.20;61.20;;;;;;5039702;28;20124;-91
2023/10/03 12:44:04;;;;;;;11.45;5.72;;;17.10;61.50;;;;;;5037500;28;20029;-90
2023/10/03 12:46:30;;;;;;;8.23;4.75;;;17.10;61.60;;;;;;5042124;28;20127;-90
2023/10/03 12:48:56;;;;;;;7.70;4.32;;;17.00;61.90;;;;;;5037917;28;20569;-90
2023/10/03 12:51:22;;;;;;;7.25;3.70;;;17.00;62.00;;;;;;5036665;28;20068;-91
2023/10/03 12:53:52;;;;;;;7.25;4.03;;;16.90;62.10;;;;;;5036241;28;20388;-89
2023/10/03 12:56:17;;;;;;;6.50;3.88;;;16.80;62.30;;;;;;5034726;28;20029;-92
2023/10/03 12:58:45;;;;;;;9.23;4.50;;;16.70;62.80;;;;;;5037833;28;20052;-90
2023/10/03 13:01:12;;;;;;;7.15;3.60;;;16.60;63.30;;;;;;5029738;28;20033;-89
2023/10/03 13:03:39;;;;;;;8.82;3.80;;;16.60;63.60;;;;;;5033357;28;20017;-90